sensor_id;sensor_type;location;lat;lon;timestamp;pressure;altitude;pressure_sealevel;temperature;humidity
22311;BME280;11323;49.610;11.016;2023-05-01T00:03:10;98238.03;;;18.40;57.53
22311;BME280;11323;49.610;11.016;2023-05-01T00:08:11;98237.66;;;18.43;57.60
22311;BME280;11323;49.610;11.016;2023-05-01T00:13:11;98224.84;;;18.40;57.62
22311;BME280;11323;49.610;11.016;2023-05-01T00:18:11;98227.47;;;18.40;57.61
22311;BME280;11323;49.610;11.016;2023-05-01T00:23:12;98214.47;;;18.38;57.57
22311;BME280;11323;49.610;11.016;2023-05-01T00:28:12;98207.94;;;18.34;57.07
22311;BME280;11323;49.610;11.016;2023-05-01T00:33:13;98206.34;;;18.40;57.61
22311;BME280;11323;49.610;11.016;2023-05-01T00:38:13;98193.53;;;18.36;57.65
22311;BME280;11323;49.610;11.016;2023-05-01T00:43:14;98192.53;;;18.37;57.71
22311;BME280;11323;49.610;11.016;2023-05-01T00:48:15;98191.53;;;18.39;57.30
22311;BME280;11323;49.610;11.016;2023-05-01T00:53:16;98184.84;;;18.36;57.55
22311;BME280;11323;49.610;11.016;2023-05-01T00:58:18;98190.53;;;18.40;57.50
22311;BME280;11323;49.610;11.016;2023-05-01T01:03:18;98164.31;;;18.31;57.39
22311;BME280;11323;49.610;11.016;2023-05-01T01:08:26;98169.63;;;18.38;57.12
22311;BME280;11323;49.610;11.016;2023-05-01T01:18:51;98154.81;;;18.37;57.28
22311;BME280;11323;49.610;11.016;2023-05-01T01:29:39;98160.25;;;18.35;57.65
22311;BME280;11323;49.610;11.016;2023-05-01T01:34:46;98143.19;;;18.31;57.26
22311;BME280;11323;49.610;11.016;2023-05-01T01:40:02;98151.91;;;18.32;57.32
22311;BME280;11323;49.610;11.016;2023-05-01T01:45:56;98145.59;;;18.26;57.53
22311;BME280;11323;49.610;11.016;2023-05-01T01:50:32;98153.75;;;18.31;57.47
22311;BME280;11323;49.610;11.016;2023-05-01T01:55:34;98151.13;;;18.31;57.20
22311;BME280;11323;49.610;11.016;2023-05-01T02:00:36;98129.75;;;18.26;57.43
22311;BME280;11323;49.610;11.016;2023-05-01T02:05:40;98133.66;;;18.30;57.46
22311;BME280;11323;49.610;11.016;2023-05-01T02:10:42;98135.28;;;18.31;57.37
22311;BME280;11323;49.610;11.016;2023-05-01T02:15:44;98125.13;;;18.28;57.42
22311;BME280;11323;49.610;11.016;2023-05-01T02:20:47;98118.59;;;18.24;57.35
22311;BME280;11323;49.610;11.016;2023-05-01T02:25:49;98103.78;;;18.23;57.51
22311;BME280;11323;49.610;11.016;2023-05-01T02:30:52;98102.75;;;18.24;57.10
22311;BME280;11323;49.610;11.016;2023-05-01T02:35:52;98102.59;;;18.26;57.37
22311;BME280;11323;49.610;11.016;2023-05-01T02:40:56;98107.47;;;18.29;57.23
22311;BME280;11323;49.610;11.016;2023-05-01T02:45:57;98101.16;;;18.23;57.41
22311;BME280;11323;49.610;11.016;2023-05-01T02:50:59;98109.28;;;18.28;57.64
22311;BME280;11323;49.610;11.016;2023-05-01T02:56:02;98100.94;;;18.25;57.43
22311;BME280;11323;49.610;11.016;2023-05-01T03:01:04;98092.63;;;18.21;57.31
22311;BME280;11323;49.610;11.016;2023-05-01T03:06:04;98104.59;;;18.24;57.56
22311;BME280;11323;49.610;11.016;2023-05-01T03:11:06;98100.75;;;18.26;57.35
22311;BME280;11323;49.610;11.016;2023-05-01T03:16:06;98093.41;;;18.21;57.67
22311;BME280;11323;49.610;11.016;2023-05-01T03:21:08;98096.44;;;18.18;57.50
22311;BME280;11323;49.610;11.016;2023-05-01T03:26:08;98099.13;;;18.25;57.42
22311;BME280;11323;49.610;11.016;2023-05-01T03:31:09;98091.63;;;18.22;57.71
22311;BME280;11323;49.610;11.016;2023-05-01T03:36:09;98081.22;;;18.20;57.65
22311;BME280;11323;49.610;11.016;2023-05-01T03:41:13;98081.22;;;18.20;57.59
22311;BME280;11323;49.610;11.016;2023-05-01T03:46:36;98086.34;;;18.22;57.58
22311;BME280;11323;49.610;11.016;2023-05-01T03:51:38;98085.50;;;18.21;57.74
22311;BME280;11323;49.610;11.016;2023-05-01T03:56:38;98073.91;;;18.16;57.76
22311;BME280;11323;49.610;11.016;2023-05-01T04:01:40;98075.91;;;18.14;57.96
22311;BME280;11323;49.610;11.016;2023-05-01T04:06:40;98073.06;;;18.09;57.74
22311;BME280;11323;49.610;11.016;2023-05-01T04:11:41;98061.28;;;18.04;57.83
22311;BME280;11323;49.610;11.016;2023-05-01T04:16:41;98062.09;;;18.05;57.83
22311;BME280;11323;49.610;11.016;2023-05-01T04:21:42;98066.16;;;18.08;57.93
22311;BME280;11323;49.610;11.016;2023-05-01T04:26:43;98060.25;;;18.05;57.83
22311;BME280;11323;49.610;11.016;2023-05-01T04:31:43;98056.00;;;18.04;57.63
22311;BME280;11323;49.610;11.016;2023-05-01T04:36:44;98061.09;;;18.06;57.72
22311;BME280;11323;49.610;11.016;2023-05-01T04:41:44;98062.09;;;18.05;57.61
22311;BME280;11323;49.610;11.016;2023-05-01T04:46:45;98052.72;;;18.02;57.77
22311;BME280;11323;49.610;11.016;2023-05-01T04:51:45;98057.41;;;18.00;57.76
22311;BME280;11323;49.610;11.016;2023-05-01T04:56:48;98055.16;;;17.97;57.41
22311;BME280;11323;49.610;11.016;2023-05-01T05:01:49;98062.06;;;17.98;57.75
22311;BME280;11323;49.610;11.016;2023-05-01T05:06:50;98059.44;;;17.98;57.63
22311;BME280;11323;49.610;11.016;2023-05-01T05:11:58;98062.41;;;17.95;57.69
22311;BME280;11323;49.610;11.016;2023-05-01T05:16:59;98057.97;;;17.96;57.51
22311;BME280;11323;49.610;11.016;2023-05-01T05:22:01;98056.78;;;17.98;57.50
22311;BME280;11323;49.610;11.016;2023-05-01T05:27:05;98057.78;;;17.97;57.47
22311;BME280;11323;49.610;11.016;2023-05-01T05:32:06;98057.34;;;17.94;57.46
22311;BME280;11323;49.610;11.016;2023-05-01T05:37:07;98055.16;;;17.97;57.41
22311;BME280;11323;49.610;11.016;2023-05-01T05:42:14;98052.06;;;17.94;57.20
22311;BME280;11323;49.610;11.016;2023-05-01T05:47:14;98066.88;;;17.95;57.54
22311;BME280;11323;49.610;11.016;2023-05-01T05:52:15;98053.25;;;17.91;57.46
22311;BME280;11323;49.610;11.016;2023-05-01T05:57:16;98046.16;;;17.91;57.69
22311;BME280;11323;49.610;11.016;2023-05-01T06:02:22;98049.88;;;17.97;57.52
22311;BME280;11323;49.610;11.016;2023-05-01T06:07:22;98040.69;;;17.93;57.53
22311;BME280;11323;49.610;11.016;2023-05-01T06:12:24;98038.47;;;17.90;57.57
22311;BME280;11323;49.610;11.016;2023-05-01T06:17:25;98035.19;;;17.88;57.62
22311;BME280;11323;49.610;11.016;2023-05-01T06:22:26;98022.41;;;17.85;57.49
22311;BME280;11323;49.610;11.016;2023-05-01T06:27:37;98034.00;;;17.90;57.50
22311;BME280;11323;49.610;11.016;2023-05-01T06:32:37;98025.44;;;17.88;57.85
22311;BME280;11323;49.610;11.016;2023-05-01T06:37:38;98033.56;;;17.87;57.50
22311;BME280;11323;49.610;11.016;2023-05-01T06:42:40;98029.09;;;17.87;57.59
22311;BME280;11323;49.610;11.016;2023-05-01T06:47:41;98023.81;;;17.87;57.72
22311;BME280;11323;49.610;11.016;2023-05-01T06:52:42;98011.22;;;17.83;57.55
22311;BME280;11323;49.610;11.016;2023-05-01T06:57:43;98012.47;;;17.87;57.34
22311;BME280;11323;49.610;11.016;2023-05-01T07:02:44;98006.38;;;17.86;57.62
22311;BME280;11323;49.610;11.016;2023-05-01T07:07:45;98025.44;;;17.88;57.34
22311;BME280;11323;49.610;11.016;2023-05-01T07:12:45;98018.75;;;17.86;57.37
22311;BME280;11323;49.610;11.016;2023-05-01T07:17:46;98024.22;;;17.84;57.31
22311;BME280;11323;49.610;11.016;2023-05-01T07:22:46;98017.34;;;17.83;57.50
22311;BME280;11323;49.610;11.016;2023-05-01T07:27:46;97997.41;;;17.81;57.22
22311;BME280;11323;49.610;11.016;2023-05-01T07:32:47;98001.94;;;17.87;57.35
22311;BME280;11323;49.610;11.016;2023-05-01T07:37:51;98003.94;;;17.85;57.35
22311;BME280;11323;49.610;11.016;2023-05-01T07:42:51;97991.38;;;17.87;57.17
22311;BME280;11323;49.610;11.016;2023-05-01T07:47:52;97988.13;;;17.85;57.39
22311;BME280;11323;49.610;11.016;2023-05-01T07:52:52;97989.75;;;17.86;57.43
22311;BME280;11323;49.610;11.016;2023-05-01T07:57:52;97990.56;;;17.86;57.38
22311;BME280;11323;49.610;11.016;2023-05-01T08:02:53;97976.78;;;17.84;57.31
22311;BME280;11323;49.610;11.016;2023-05-01T08:07:53;97969.84;;;17.77;52.59
22311;BME280;11323;49.610;11.016;2023-05-01T08:12:54;97965.50;;;17.62;50.96
22311;BME280;11323;49.610;11.016;2023-05-01T08:17:54;97956.19;;;17.31;49.07
22311;BME280;11323;49.610;11.016;2023-05-01T08:22:55;97965.09;;;17.30;50.41
22311;BME280;11323;49.610;11.016;2023-05-01T08:27:56;97965.66;;;17.25;48.59
22311;BME280;11323;49.610;11.016;2023-05-01T08:32:56;97957.41;;;17.07;47.24
22311;BME280;11323;49.610;11.016;2023-05-01T08:37:56;97950.50;;;17.06;48.06
22311;BME280;11323;49.610;11.016;2023-05-01T08:42:59;97954.66;;;16.93;45.85
22311;BME280;11323;49.610;11.016;2023-05-01T08:48:03;97959.88;;;16.87;47.12
22311;BME280;11323;49.610;11.016;2023-05-01T08:53:04;97947.06;;;16.83;47.23
22311;BME280;11323;49.610;11.016;2023-05-01T08:58:06;97946.59;;;16.95;47.88
22311;BME280;11323;49.610;11.016;2023-05-01T09:03:10;97949.47;;;17.00;49.04
22311;BME280;11323;49.610;11.016;2023-05-01T09:08:11;97938.88;;;16.93;47.01
22311;BME280;11323;49.610;11.016;2023-05-01T09:13:11;97942.97;;;16.96;46.19
22311;BME280;11323;49.610;11.016;2023-05-01T09:18:12;97943.97;;;16.95;46.77
22311;BME280;11323;49.610;11.016;2023-05-01T09:23:12;97951.03;;;16.94;48.14
22311;BME280;11323;49.610;11.016;2023-05-01T09:28:12;97951.97;;;16.87;46.64
22311;BME280;11323;49.610;11.016;2023-05-01T09:33:14;97956.66;;;16.91;46.71
22311;BME280;11323;49.610;11.016;2023-05-01T09:38:21;97946.31;;;16.90;46.08
22311;BME280;11323;49.610;11.016;2023-05-01T09:43:25;97944.59;;;16.97;48.01
22311;BME280;11323;49.610;11.016;2023-05-01T09:48:26;97944.97;;;16.94;46.65
22311;BME280;11323;49.610;11.016;2023-05-01T09:53:37;97948.22;;;16.96;45.79
22311;BME280;11323;49.610;11.016;2023-05-01T09:58:38;97940.19;;;17.04;47.74
22311;BME280;11323;49.610;11.016;2023-05-01T10:03:38;97945.59;;;16.96;46.52
22311;BME280;11323;49.610;11.016;2023-05-01T10:08:46;97942.97;;;16.96;45.49
22311;BME280;11323;49.610;11.016;2023-05-01T10:14:04;97934.06;;;16.97;45.30
22311;BME280;11323;49.610;11.016;2023-05-01T10:19:05;97934.06;;;16.97;45.86
22311;BME280;11323;49.610;11.016;2023-05-01T10:24:06;97937.19;;;17.07;45.02
22311;BME280;11323;49.610;11.016;2023-05-01T10:29:09;97939.81;;;17.07;46.46
22311;BME280;11323;49.610;11.016;2023-05-01T10:34:15;97941.72;;;17.20;48.75
22311;BME280;11323;49.610;11.016;2023-05-01T10:39:33;97940.13;;;17.26;49.34
22311;BME280;11323;49.610;11.016;2023-05-01T10:44:34;97944.66;;;17.32;49.47
22311;BME280;11323;49.610;11.016;2023-05-01T10:55:34;97926.22;;;17.32;50.30
22311;BME280;11323;49.610;11.016;2023-05-01T11:00:35;97930.69;;;17.38;50.90
22311;BME280;11323;49.610;11.016;2023-05-01T11:16:40;97947.34;;;17.45;51.13
22311;BME280;11323;49.610;11.016;2023-05-01T11:21:43;97957.88;;;17.45;51.11
22311;BME280;11323;49.610;11.016;2023-05-01T11:26:43;97953.44;;;17.46;51.12
22311;BME280;11323;49.610;11.016;2023-05-01T11:31:46;97961.97;;;17.48;51.57
22311;BME280;11323;49.610;11.016;2023-05-01T11:36:48;97969.31;;;17.53;51.46
22311;BME280;11323;49.610;11.016;2023-05-01T11:41:48;97968.91;;;17.56;51.89
22311;BME280;11323;49.610;11.016;2023-05-01T11:46:55;97973.66;;;17.67;52.41
22311;BME280;11323;49.610;11.016;2023-05-01T11:51:57;97978.50;;;17.70;53.51
22311;BME280;11323;49.610;11.016;2023-05-01T11:56:58;97976.75;;;17.78;54.03
22311;BME280;11323;49.610;11.016;2023-05-01T12:01:59;97970.66;;;17.77;54.81
22311;BME280;11323;49.610;11.016;2023-05-01T12:07:01;97973.69;;;17.81;53.79
22311;BME280;11323;49.610;11.016;2023-05-01T12:12:02;97976.56;;;17.86;54.33
22311;BME280;11323;49.610;11.016;2023-05-01T12:17:04;97981.88;;;17.93;54.12
22311;BME280;11323;49.610;11.016;2023-05-01T12:22:09;97981.69;;;17.94;54.91
22311;BME280;11323;49.610;11.016;2023-05-01T12:27:09;97973.16;;;17.92;54.32
22311;BME280;11323;49.610;11.016;2023-05-01T12:32:10;97989.66;;;18.01;54.65
22311;BME280;11323;49.610;11.016;2023-05-01T12:37:11;97981.53;;;18.02;54.92
22311;BME280;11323;49.610;11.016;2023-05-01T12:42:12;97979.34;;;18.06;54.86
22311;BME280;11323;49.610;11.016;2023-05-01T12:47:13;97978.13;;;18.09;55.17
22311;BME280;11323;49.610;11.016;2023-05-01T12:52:14;97969.00;;;18.11;54.84
22311;BME280;11323;49.610;11.016;2023-05-01T12:57:15;97975.31;;;18.17;55.01
22311;BME280;11323;49.610;11.016;2023-05-01T13:02:16;97962.38;;;18.22;55.53
22311;BME280;11323;49.610;11.016;2023-05-01T13:07:17;97970.47;;;18.27;55.25
22311;BME280;11323;49.610;11.016;2023-05-01T13:12:18;97958.91;;;18.28;55.24
22311;BME280;11323;49.610;11.016;2023-05-01T13:17:29;97962.19;;;18.30;55.75
22311;BME280;11323;49.610;11.016;2023-05-01T13:22:35;97954.25;;;18.30;55.96
22311;BME280;11323;49.610;11.016;2023-05-01T13:27:36;97949.41;;;18.34;55.75
22311;BME280;11323;49.610;11.016;2023-05-01T13:32:39;97956.09;;;18.36;55.80
22311;BME280;11323;49.610;11.016;2023-05-01T13:37:40;97949.41;;;18.34;56.08
22311;BME280;11323;49.610;11.016;2023-05-01T13:42:41;97965.25;;;18.41;56.11
22311;BME280;11323;49.610;11.016;2023-05-01T13:47:41;97955.50;;;18.41;55.89
22311;BME280;11323;49.610;11.016;2023-05-01T13:52:43;97960.78;;;18.48;56.07
22311;BME280;11323;49.610;11.016;2023-05-01T13:57:44;97966.06;;;18.48;56.16
22311;BME280;11323;49.610;11.016;2023-05-01T14:02:46;97956.13;;;18.50;55.68
22311;BME280;11323;49.610;11.016;2023-05-01T14:07:57;97960.00;;;18.54;56.89
22311;BME280;11323;49.610;11.016;2023-05-01T14:12:58;97961.22;;;18.58;56.29
22311;BME280;11323;49.610;11.016;2023-05-01T14:18:03;97949.06;;;18.57;56.16
22311;BME280;11323;49.610;11.016;2023-05-01T14:23:04;97949.25;;;18.62;56.23
22311;BME280;11323;49.610;11.016;2023-05-01T14:28:05;97945.00;;;18.61;56.16
22311;BME280;11323;49.610;11.016;2023-05-01T14:33:10;97966.50;;;18.58;55.68
22311;BME280;11323;49.610;11.016;2023-05-01T14:38:13;97945.00;;;18.61;56.18
22311;BME280;11323;49.610;11.016;2023-05-01T14:43:18;97951.09;;;18.62;56.47
22311;BME280;11323;49.610;11.016;2023-05-01T14:48:21;97946.22;;;18.59;56.38
22311;BME280;11323;49.610;11.016;2023-05-01T14:53:22;97944.19;;;18.61;55.89
22311;BME280;11323;49.610;11.016;2023-05-01T14:58:23;97941.34;;;18.62;56.22
22311;BME280;11323;49.610;11.016;2023-05-01T15:03:23;97938.91;;;18.67;56.11
22311;BME280;11323;49.610;11.016;2023-05-01T15:08:23;97946.84;;;18.67;56.29
22311;BME280;11323;49.610;11.016;2023-05-01T15:13:24;97949.06;;;18.71;57.00
22311;BME280;11323;49.610;11.016;2023-05-01T15:18:24;97952.31;;;18.73;56.58
22311;BME280;11323;49.610;11.016;2023-05-01T15:23:25;97948.66;;;18.74;56.75
22311;BME280;11323;49.610;11.016;2023-05-01T15:28:26;97950.06;;;18.70;56.79
22311;BME280;11323;49.610;11.016;2023-05-01T15:33:26;97944.78;;;18.70;57.06
22311;BME280;11323;49.610;11.016;2023-05-01T15:38:27;97938.72;;;18.76;56.89
22311;BME280;11323;49.610;11.016;2023-05-01T15:43:27;97939.72;;;18.75;57.18
22311;BME280;11323;49.610;11.016;2023-05-01T15:48:27;97933.44;;;18.76;57.26
22311;BME280;11323;49.610;11.016;2023-05-01T15:53:28;97947.44;;;18.83;57.16
22311;BME280;11323;49.610;11.016;2023-05-01T15:58:28;97943.78;;;18.84;57.35
22311;BME280;11323;49.610;11.016;2023-05-01T16:03:29;97953.97;;;18.87;57.59
22311;BME280;11323;49.610;11.016;2023-05-01T16:08:30;97949.06;;;18.84;57.01
22311;BME280;11323;49.610;11.016;2023-05-01T16:13:36;97941.75;;;18.79;56.93
22311;BME280;11323;49.610;11.016;2023-05-01T16:18:39;97937.72;;;18.77;56.86
22311;BME280;11323;49.610;11.016;2023-05-01T16:23:40;97934.06;;;18.78;56.67
22311;BME280;11323;49.610;11.016;2023-05-01T16:28:41;97933.44;;;18.76;56.62
22311;BME280;11323;49.610;11.016;2023-05-01T16:33:41;97944.63;;;18.78;57.03
22311;BME280;11323;49.610;11.016;2023-05-01T16:38:43;97945.00;;;18.75;56.37
22311;BME280;11323;49.610;11.016;2023-05-01T16:43:44;97947.44;;;18.76;56.53
22311;BME280;11323;49.610;11.016;2023-05-01T16:48:45;97947.44;;;18.76;56.31
22311;BME280;11323;49.610;11.016;2023-05-01T16:53:45;97942.16;;;18.76;56.36
22311;BME280;11323;49.610;11.016;2023-05-01T16:58:46;97953.53;;;18.77;56.25
22311;BME280;11323;49.610;11.016;2023-05-01T17:03:46;97946.25;;;18.79;56.08
22311;BME280;11323;49.610;11.016;2023-05-01T17:08:47;97941.16;;;18.77;56.53
22311;BME280;11323;49.610;11.016;2023-05-01T17:13:47;97944.19;;;18.81;56.46
22311;BME280;11323;49.610;11.016;2023-05-01T17:18:47;97936.09;;;18.82;56.66
22311;BME280;11323;49.610;11.016;2023-05-01T17:23:48;97949.47;;;18.88;57.08
22311;BME280;11323;49.610;11.016;2023-05-01T17:28:48;97945.63;;;18.90;57.32
22311;BME280;11323;49.610;11.016;2023-05-01T17:33:49;97953.16;;;18.93;57.49
22311;BME280;11323;49.610;11.016;2023-05-01T17:38:50;97953.16;;;18.93;57.32
22311;BME280;11323;49.610;11.016;2023-05-01T17:43:50;97963.34;;;18.96;57.66
22311;BME280;11323;49.610;11.016;2023-05-01T17:48:50;97960.91;;;18.95;57.51
22311;BME280;11323;49.610;11.016;2023-05-01T17:53:51;97970.03;;;18.99;57.45
22311;BME280;11323;49.610;11.016;2023-05-01T17:58:52;97969.84;;;19.01;58.18
22311;BME280;11323;49.610;11.016;2023-05-01T18:03:53;97977.53;;;18.95;57.73
22311;BME280;11323;49.610;11.016;2023-05-01T18:08:54;97965.75;;;18.91;57.39
22311;BME280;11323;49.610;11.016;2023-05-01T18:13:54;97975.47;;;18.91;57.42
22311;BME280;11323;49.610;11.016;2023-05-01T18:18:54;97994.97;;;18.90;57.21
22311;BME280;11323;49.610;11.016;2023-05-01T18:23:57;97994.59;;;18.93;57.20
22311;BME280;11323;49.610;11.016;2023-05-01T18:28:57;98002.72;;;18.98;57.57
22311;BME280;11323;49.610;11.016;2023-05-01T18:33:58;98010.47;;;19.00;57.67
22311;BME280;11323;49.610;11.016;2023-05-01T18:38:58;97999.91;;;19.00;57.87
22311;BME280;11323;49.610;11.016;2023-05-01T18:44:01;98003.75;;;19.04;57.79
22311;BME280;11323;49.610;11.016;2023-05-01T18:49:03;98009.25;;;19.09;57.79
22311;BME280;11323;49.610;11.016;2023-05-01T18:54:03;98012.50;;;19.11;57.80
22311;BME280;11323;49.610;11.016;2023-05-01T18:59:06;98020.63;;;19.09;57.90
22311;BME280;11323;49.610;11.016;2023-05-01T19:04:06;98030.00;;;19.12;58.04
22311;BME280;11323;49.610;11.016;2023-05-01T19:09:06;98028.16;;;19.12;58.20
22311;BME280;11323;49.610;11.016;2023-05-01T19:14:07;98031.00;;;19.11;58.46
22311;BME280;11323;49.610;11.016;2023-05-01T19:19:07;98040.13;;;19.15;58.27
22311;BME280;11323;49.610;11.016;2023-05-01T19:24:08;98053.34;;;19.15;58.35
22311;BME280;11323;49.610;11.016;2023-05-01T19:29:09;98050.69;;;19.15;58.23
22311;BME280;11323;49.610;11.016;2023-05-01T19:34:10;98052.31;;;19.16;58.45
22311;BME280;11323;49.610;11.016;2023-05-01T19:39:10;98057.22;;;19.19;58.34
22311;BME280;11323;49.610;11.016;2023-05-01T19:44:11;98044.63;;;19.21;58.80
22311;BME280;11323;49.610;11.016;2023-05-01T19:49:11;98050.09;;;19.26;58.41
22311;BME280;11323;49.610;11.016;2023-05-01T19:54:12;98053.16;;;19.23;58.56
22311;BME280;11323;49.610;11.016;2023-05-01T19:59:12;98059.66;;;19.27;58.42
22311;BME280;11323;49.610;11.016;2023-05-01T20:04:13;98050.53;;;19.30;58.49
22311;BME280;11323;49.610;11.016;2023-05-01T20:09:13;98064.53;;;19.31;58.09
22311;BME280;11323;49.610;11.016;2023-05-01T20:14:13;98069.81;;;19.31;58.54
22311;BME280;11323;49.610;11.016;2023-05-01T20:19:14;98079.38;;;19.32;58.64
22311;BME280;11323;49.610;11.016;2023-05-01T20:24:16;98088.94;;;19.33;58.58
22311;BME280;11323;49.610;11.016;2023-05-01T20:29:17;98081.63;;;19.35;58.85
22311;BME280;11323;49.610;11.016;2023-05-01T20:34:18;98083.66;;;19.33;58.70
22311;BME280;11323;49.610;11.016;2023-05-01T20:39:18;98099.13;;;19.36;58.91
22311;BME280;11323;49.610;11.016;2023-05-01T20:44:19;98088.09;;;19.32;58.80
22311;BME280;11323;49.610;11.016;2023-05-01T20:49:19;98095.22;;;19.32;58.09
22311;BME280;11323;49.610;11.016;2023-05-01T20:54:20;98103.56;;;19.28;57.64
22311;BME280;11323;49.610;11.016;2023-05-01T20:59:21;98089.72;;;19.26;57.21
22311;BME280;11323;49.610;11.016;2023-05-01T21:04:22;98084.66;;;19.25;57.24
22311;BME280;11323;49.610;11.016;2023-05-01T21:09:22;98087.91;;;19.27;57.20
22311;BME280;11323;49.610;11.016;2023-05-01T21:14:22;98096.22;;;19.24;57.29
22311;BME280;11323;49.610;11.016;2023-05-01T21:19:23;98108.66;;;19.23;56.97
22311;BME280;11323;49.610;11.016;2023-05-01T21:24:24;98116.56;;;19.23;57.03
22311;BME280;11323;49.610;11.016;2023-05-01T21:29:24;98121.84;;;19.23;56.96
22311;BME280;11323;49.610;11.016;2023-05-01T21:34:25;98120.22;;;19.22;57.15
22311;BME280;11323;49.610;11.016;2023-05-01T21:39:25;98122.25;;;19.20;56.85
22311;BME280;11323;49.610;11.016;2023-05-01T21:44:28;98130.78;;;19.22;57.76
22311;BME280;11323;49.610;11.016;2023-05-01T21:49:29;98127.13;;;19.23;57.25
22311;BME280;11323;49.610;11.016;2023-05-01T21:54:30;98130.78;;;19.22;57.57
22311;BME280;11323;49.610;11.016;2023-05-01T21:59:39;98131.97;;;19.20;57.04
22311;BME280;11323;49.610;11.016;2023-05-01T22:04:40;98132.81;;;19.20;57.92
22311;BME280;11323;49.610;11.016;2023-05-01T22:09:40;98127.13;;;19.17;57.26
22311;BME280;11323;49.610;11.016;2023-05-01T22:14:40;98137.63;;;18.96;55.69
22311;BME280;11323;49.610;11.016;2023-05-01T22:19:41;98127.41;;;18.80;56.32
22311;BME280;11323;49.610;11.016;2023-05-01T22:24:41;98137.72;;;18.75;56.77
22311;BME280;11323;49.610;11.016;2023-05-01T22:29:42;98134.25;;;18.67;56.61
22311;BME280;11323;49.610;11.016;2023-05-01T22:34:42;98134.44;;;18.66;56.78
22311;BME280;11323;49.610;11.016;2023-05-01T22:39:42;98136.66;;;18.62;56.81
22311;BME280;11323;49.610;11.016;2023-05-01T22:44:43;98138.03;;;18.58;56.81
22311;BME280;11323;49.610;11.016;2023-05-01T22:49:43;98153.28;;;18.56;56.83
22311;BME280;11323;49.610;11.016;2023-05-01T22:54:44;98144.31;;;18.50;56.73
22311;BME280;11323;49.610;11.016;2023-05-01T22:59:44;98160.97;;;18.51;56.83
22311;BME280;11323;49.610;11.016;2023-05-01T23:04:45;98156.91;;;18.48;56.78
22311;BME280;11323;49.610;11.016;2023-05-01T23:09:45;98165.44;;;18.50;56.71
22311;BME280;11323;49.610;11.016;2023-05-01T23:14:46;98156.69;;;18.50;56.75
22311;BME280;11323;49.610;11.016;2023-05-01T23:19:47;98156.06;;;18.48;56.84
22311;BME280;11323;49.610;11.016;2023-05-01T23:24:47;98163.38;;;18.46;56.70
22311;BME280;11323;49.610;11.016;2023-05-01T23:29:53;98150.38;;;18.44;56.87
22311;BME280;11323;49.610;11.016;2023-05-01T23:35:11;98163.34;;;18.39;57.01
22311;BME280;11323;49.610;11.016;2023-05-01T23:40:12;98154.38;;;18.33;57.09
22311;BME280;11323;49.610;11.016;2023-05-01T23:45:13;98158.03;;;18.32;57.09
22311;BME280;11323;49.610;11.016;2023-05-01T23:50:13;98155.75;;;18.29;57.10
22311;BME280;11323;49.610;11.016;2023-05-01T23:55:14;98154.13;;;18.28;56.98
